Hardenville, Missouri
Current Conditions -  °F | °C
As of 6:53 PM on Wednesday 17 Dec 2014 (Local Time) from KBPK Reporting Station
Light Rain Light Rain  
Wind Chill: 34°   Ceiling: 6000
Heat Index: 34°   Visibility: 6mi
Dew Point: 32°   Wind: 0mph
Humidity: 92%   Direction: NA
Pressure: 30.23"   Gusts: NA
Location:  36.59°N, 92.37°W
Report Text: KBPK 180053Z AUTO 00000KT 6SM -RA BR OVC060 01/00 A3023 RMK AO2 SLP246 P0001 T00110000
Loading
Personal Weather Stations






























Interactive Weather Map New forecast layout! Learn more

10-Day Weather Forecast

Advertisements
Track Severe Weather on mobile